Meteo Giornale » Osservazioni meteo Italia » Verona-Villafranca

ore: 07:50 - Osservazioni Meteo Verona-Villafranca
Lat. 45° 23' N Lon. 10° 52' E Alt. 67 metri s.l.m.

sereno Europe/Rome

20 °C

Sereno

Temp. 24 Ore

16 °C

27 °C

Nord

3.7 Km/h

Dew point 13 °C

Umidità 64 %

Visibilità  10 Km

Il sole sorge alle ore 05:54

Il sole tramonta alle ore 20:51

Data e Ora Cielo e Fenomeni T °C DP °C Um. % Pres. hPa Vis. km Vento km/h
Oggi h: 07:50 sereno Sereno 20 13 64 1010 10 N 3.7
Oggi h: 07:20 sereno Sereno 19 14 72 1010 10 N 1.8
Oggi h: 06:50 sereno Sereno 16 13 82 1009 10 N 5.5
Oggi h: 05:50 sereno Sereno 16 13 82 1009 10 N 7.4
Oggi h: 05:20 poco_nuvoloso Poco Nuvoloso 16 13 82 1009 10 O/NO 9.3
Oggi h: 04:50 nuvoloso Nuvoloso 17 14 82 1009 10 N 5.5
Oggi h: 04:20 nuvoloso Nuvoloso 16 14 87 1008 10 NO 7.4
Oggi h: 03:50 nuvoloso Nuvoloso 17 14 82 1008 10 N 5.5
Oggi h: 03:20 nuvoloso Nuvoloso 17 14 82 1008 10 O/NO 7.4
Oggi h: 02:50 poco_nuvoloso Poco Nuvoloso 16 14 87 1008 10 O/NO 9.3
Oggi h: 02:20 poco_nuvoloso Poco Nuvoloso 17 14 82 1008 10 N/NO 7.4
Oggi h: 01:50 poco_nuvoloso Poco Nuvoloso 17 14 82 1008 10 N 5.5
Oggi h: 01:20 poco_nuvoloso Poco Nuvoloso 17 15 88 1008 10 N 7.4
Oggi h: 00:50 poco_nuvoloso Poco Nuvoloso 18 14 77 1008 10 N 5.5
Oggi h: 00:20 poco_nuvoloso Poco Nuvoloso 18 14 77 1007 10 N 3.7
Ieri h: 23:50 poco_nuvoloso Poco Nuvoloso 19 15 77 1007 10 N 5.5
Ieri h: 23:20 poco_nuvoloso Poco Nuvoloso 19 15 77 1007 10 N 3.7
Ieri h: 22:50 poco_nuvoloso Poco Nuvoloso 20 15 72 1007 10 N 3.7
Ieri h: 22:20 nuvoloso Nuvoloso 21 15 68 1006 10 N 5.5
Ieri h: 21:50 nuvoloso Nuvoloso 21 15 68 1006 10 E/NE 7.4
Ieri h: 21:20 nuvoloso Nuvoloso 21 15 68 1005 10 N 5.5
Ieri h: 20:50 nuvoloso Nuvoloso 23 16 64 1005 10 N 5.5
Ieri h: 20:20 nuvoloso Nuvoloso 24 13 50 1005 10 N 3.7
Ieri h: 19:50 nuvoloso Nuvoloso 24 14 53 1005 10 N 5.5
Ieri h: 19:20 nuvoloso Nuvoloso 25 16 57 1005 10 N 1.8
Ieri h: 18:50 molto_nuvoloso Molto Nuvoloso 25 15 53 1004 10 N 1.8
Ieri h: 18:20 molto_nuvoloso Molto Nuvoloso 25 13 47 1004 10 N 1.8
Ieri h: 17:50 molto_nuvoloso Molto Nuvoloso 25 13 47 1004 10 N 5.5
Ieri h: 17:20 molto_nuvoloso Molto Nuvoloso 26 13 44 1004 10 O 7.4
Ieri h: 16:50 molto_nuvoloso Molto Nuvoloso 26 12 41 1004 10 O 11.1
Ieri h: 16:20 molto_nuvoloso Molto Nuvoloso 27 12 39 1004 10 O 13
Ieri h: 15:50 molto_nuvoloso Molto Nuvoloso 27 13 42 1004 10 O 11.1
Ieri h: 15:20 molto_nuvoloso Molto Nuvoloso 26 12 41 1004 10 O 13
Ieri h: 14:50 molto_nuvoloso Molto Nuvoloso 26 12 41 1004 10 O 16.7
Ieri h: 13:50 nuvoloso Nuvoloso 26 12 41 1004 10 O 16.7
Ieri h: 13:20 nuvoloso Nuvoloso 26 11 39 1004 10 O 14.8
Ieri h: 12:50 nuvoloso Nuvoloso 26 11 39 1005 10 O 11.1
Ieri h: 12:20 poco_nuvoloso Poco Nuvoloso 25 11 41 1005 10 O/SO 16.7
Ieri h: 11:50 poco_nuvoloso Poco Nuvoloso 24 12 47 1005 10 O/SO 14.8
Ieri h: 11:20 poco_nuvoloso Poco Nuvoloso 24 12 47 1005 10 O/SO 16.7
Ieri h: 10:50 nuvoloso Nuvoloso 23 12 49 1005 10 O 14.8
Ieri h: 10:20 nuvoloso Nuvoloso 22 12 53 1005 10 S/SO 14.8
Ieri h: 09:50 nuvoloso Nuvoloso 21 12 56 1005 10 SO 13
Ieri h: 09:20 nuvoloso Nuvoloso 21 14 64 1005 10 N 3.7
Ieri h: 08:50 nuvoloso Nuvoloso 19 14 72 1005 10 N 1.8